Time;durP1;ratioP1;P1;durP2;ratioP2;P2;SDS_P1;SDS_P2;PMS_P1;PMS_P2;Temp;Humidity;BMP_temperature;BMP_pressure;BME280_temperature;BME280_humidity;BME280_pressure;Samples;Min_cycle;Max_cycle;Signal;HPM_P1;HPM_P2
2024/01/23 00:00:35;;;;;;;;;5.00;5.00;;;;;18.77;47.84;100317.98;34491;1260;20057;-68
2024/01/23 00:01:42;;;;;;;;;5.00;5.00;;;;;18.79;47.50;100317.39;34560;1268;21813;-68
2024/01/23 00:02:29;;;;;;;;;5.00;5.00;;;;;18.81;47.55;100326.23;34484;1253;20001;-68
2024/01/23 00:03:17;;;;;;;;;7.00;5.00;;;;;18.84;47.40;100320.02;34486;1253;20667;-67
2024/01/23 00:04:04;;;;;;;;;4.00;4.00;;;;;18.86;47.33;100321.38;34489;1269;18776;-68
2024/01/23 00:04:52;;;;;;;;;4.00;4.00;;;;;18.88;47.45;100324.58;34457;1253;18715;-68
2024/01/23 00:05:39;;;;;;;;;5.00;5.00;;;;;18.90;47.22;100323.94;34514;1269;18653;-68
2024/01/23 00:06:26;;;;;;;;;5.00;4.00;;;;;18.91;47.33;100328.44;34475;1269;18668;-69
2024/01/23 00:07:14;;;;;;;;;7.00;7.00;;;;;18.93;47.28;100330.40;34514;1269;20202;-68
2024/01/23 00:08:03;;;;;;;;;6.50;6.00;;;;;18.94;47.17;100326.93;34463;1269;19963;-68
2024/01/23 00:08:52;;;;;;;;;4.00;4.00;;;;;18.95;47.00;100328.73;34468;1269;18839;-68
2024/01/23 00:09:39;;;;;;;;;6.00;5.00;;;;;18.97;47.17;100326.12;34486;1269;18573;-68
2024/01/23 00:10:27;;;;;;;;;5.00;5.00;;;;;18.98;46.98;100325.14;34476;1262;18703;-69
2024/01/23 00:11:14;;;;;;;;;4.00;4.00;;;;;18.99;47.00;100327.86;34484;1269;21162;-68
2024/01/23 00:12:02;;;;;;;;;5.00;5.00;;;;;18.99;46.84;100328.95;34463;1269;20657;-68
2024/01/23 00:12:49;;;;;;;;;4.00;4.00;;;;;19.00;47.18;100331.17;34498;1269;19073;-68
2024/01/23 00:13:37;;;;;;;;;7.00;5.00;;;;;19.00;47.05;100327.05;34463;1253;20064;-68
2024/01/23 00:14:24;;;;;;;;;4.00;4.00;;;;;18.99;46.98;100327.92;34486;1269;19981;-68
2024/01/23 00:15:12;;;;;;;;;4.00;4.00;;;;;19.00;47.12;100327.81;34451;1269;18713;-68
2024/01/23 00:15:59;;;;;;;;;5.00;4.00;;;;;19.00;46.96;100322.55;34492;1269;18614;-69
2024/01/23 00:16:47;;;;;;;;;7.00;5.00;;;;;19.01;46.90;100323.03;34471;1269;19010;-68
2024/01/23 00:17:34;;;;;;;;;4.00;4.00;;;;;19.01;46.97;100324.39;34490;1269;18542;-68
2024/01/23 00:18:22;;;;;;;;;4.00;4.00;;;;;19.01;46.99;100321.02;34481;1269;18643;-68
2024/01/23 00:19:09;;;;;;;;;6.50;5.00;;;;;18.99;46.95;100323.85;34505;1269;19946;-68
2024/01/23 00:19:57;;;;;;;;;4.50;4.50;;;;;19.00;46.77;100326.23;34467;1269;18763;-68
2024/01/23 00:20:46;;;;;;;;;5.00;4.00;;;;;19.00;46.98;100326.55;34496;1269;18739;-68
2024/01/23 00:21:34;;;;;;;;;4.00;4.00;;;;;19.00;47.12;100319.27;34503;1261;18699;-68
2024/01/23 00:22:21;;;;;;;;;4.50;4.50;;;;;19.01;46.70;100325.52;34481;1253;18687;-69
2024/01/23 00:23:09;;;;;;;;;4.00;4.00;;;;;19.01;46.83;100327.80;34535;1260;20045;-68
2024/01/23 00:23:56;;;;;;;;;7.00;5.00;;;;;18.99;46.87;100328.56;34477;1253;20092;-69
2024/01/23 00:24:43;;;;;;;;;4.00;4.00;;;;;18.98;46.87;100328.63;34525;1253;21272;-69
2024/01/23 00:25:31;;;;;;;;;4.00;4.00;;;;;18.98;46.91;100333.17;34492;1269;19984;-68
2024/01/23 00:26:19;;;;;;;;;4.00;4.00;;;;;18.97;46.73;100333.02;34511;1269;18710;-68
2024/01/23 00:27:06;;;;;;;;;5.00;5.00;;;;;18.96;46.80;100331.71;34469;1269;19959;-68
2024/01/23 00:27:54;;;;;;;;;7.50;5.00;;;;;18.97;46.92;100335.34;34520;1261;19033;-68
2024/01/23 00:28:41;;;;;;;;;5.00;5.00;;;;;18.97;46.76;100331.16;34480;1269;19981;-68
2024/01/23 00:29:29;;;;;;;;;6.00;5.00;;;;;18.97;46.88;100334.98;34529;1269;18662;-67
2024/01/23 00:30:17;;;;;;;;;4.67;4.00;;;;;18.96;46.84;100333.13;34477;1253;18664;-68
2024/01/23 00:31:06;;;;;;;;;4.00;4.00;;;;;18.96;46.90;100332.36;34501;1269;20000;-68
2024/01/23 00:31:53;;;;;;;;;2.00;2.00;;;;;18.96;46.71;100332.80;34451;1269;21090;-69
2024/01/23 00:32:40;;;;;;;;;4.00;4.00;;;;;18.96;46.68;100330.14;34515;1253;18677;-68
2024/01/23 00:33:28;;;;;;;;;4.00;4.00;;;;;18.95;46.90;100334.21;34453;1269;19915;-68
2024/01/23 00:34:15;;;;;;;;;4.33;4.00;;;;;18.95;47.01;100330.46;34451;1260;18652;-68
2024/01/23 00:35:02;;;;;;;;;4.00;2.67;;;;;18.94;47.06;100326.93;34487;1269;18683;-68
2024/01/23 00:35:50;;;;;;;;;4.00;4.00;;;;;18.95;46.89;100327.27;34457;1269;18781;-68
2024/01/23 00:36:37;;;;;;;;;5.00;4.50;;;;;18.93;46.76;100329.70;34490;1253;19984;-69
2024/01/23 00:37:25;;;;;;;;;5.00;5.00;;;;;18.92;46.93;100327.90;34463;1269;21144;-68
2024/01/23 00:38:12;;;;;;;;;4.00;4.00;;;;;18.92;47.21;100326.44;34479;1269;18621;-69
2024/01/23 00:39:00;;;;;;;;;4.25;4.25;;;;;18.92;46.96;100328.39;34473;1253;20090;-69
2024/01/23 00:39:48;;;;;;;;;4.00;4.00;;;;;18.92;46.84;100326.44;34462;1269;18671;-68
2024/01/23 00:40:35;;;;;;;;;5.00;5.00;;;;;18.91;47.00;100324.37;34450;1269;20020;-69
2024/01/23 00:41:22;;;;;;;;;5.00;5.00;;;;;18.91;46.91;100327.57;34489;1269;19843;-68
2024/01/23 00:42:10;;;;;;;;;4.00;4.00;;;;;18.89;47.17;100323.66;34475;1269;18649;-68
2024/01/23 00:42:57;;;;;;;;;4.67;4.67;;;;;18.89;47.02;100324.52;34501;1252;20168;-68
2024/01/23 00:43:45;;;;;;;;;4.50;4.50;;;;;18.87;47.22;100323.33;34482;1253;20266;-68
2024/01/23 00:44:32;;;;;;;;;4.00;4.00;;;;;18.87;47.23;100324.30;34463;1269;18647;-68
2024/01/23 00:45:19;;;;;;;;;2.00;2.00;;;;;18.85;47.35;100321.37;34495;1253;21288;-68
2024/01/23 00:46:07;;;;;;;;;4.00;4.00;;;;;18.83;47.53;100320.98;34466;1269;18663;-69
2024/01/23 00:46:55;;;;;;;;;4.00;4.00;;;;;18.82;47.42;100322.11;34479;1269;20159;-68
2024/01/23 00:47:42;;;;;;;;;4.00;4.00;;;;;18.82;47.39;100327.23;34518;1269;18668;-68
2024/01/23 00:48:30;;;;;;;;;4.00;4.00;;;;;18.82;47.47;100327.23;34528;1253;18866;-68
2024/01/23 00:49:18;;;;;;;;;4.50;4.00;;;;;18.82;47.44;100328.41;34509;1269;19862;-69
2024/01/23 00:50:05;;;;;;;;;4.00;4.00;;;;;18.81;47.52;100324.17;34449;1269;19950;-68
2024/01/23 00:50:52;;;;;;;;;4.00;4.00;;;;;18.81;47.49;100329.27;34484;1269;18645;-68
2024/01/23 00:51:40;;;;;;;;;4.00;4.00;;;;;18.81;47.29;100329.98;34462;1262;19063;-68
2024/01/23 00:52:27;;;;;;;;;4.00;4.00;;;;;18.82;47.22;100328.85;34451;1269;20040;-68
2024/01/23 00:53:15;;;;;;;;;4.00;4.00;;;;;18.82;47.22;100329.39;34455;1269;21130;-69
2024/01/23 00:54:02;;;;;;;;;6.00;6.00;;;;;18.81;47.40;100330.20;34468;1269;19963;-69
2024/01/23 00:54:49;;;;;;;;;4.25;4.00;;;;;18.82;47.22;100333.63;34480;1269;18642;-68
2024/01/23 00:55:37;;;;;;;;;5.00;4.00;;;;;18.82;47.41;100332.33;34487;1269;20017;-68
2024/01/23 00:56:25;;;;;;;;;5.00;5.00;;;;;18.82;47.17;100330.05;34454;1269;19981;-69
2024/01/23 00:57:12;;;;;;;;;4.00;4.00;;;;;18.82;47.45;100332.27;34473;1269;19903;-68
2024/01/23 00:58:00;;;;;;;;;5.00;4.50;;;;;18.81;47.36;100332.70;34480;1269;20044;-68
2024/01/23 00:58:47;;;;;;;;;5.00;5.00;;;;;18.82;47.31;100331.35;34469;1269;19541;-68
2024/01/23 00:59:34;;;;;;;;;4.00;4.00;;;;;18.82;47.35;100338.52;34467;1253;20237;-68
2024/01/23 01:00:22;;;;;;;;;4.00;4.00;;;;;18.81;47.35;100338.30;34469;1269;20155;-68
2024/01/23 01:01:09;;;;;;;;;5.00;5.00;;;;;18.80;47.21;100336.83;34450;1269;20391;-68
2024/01/23 01:01:57;;;;;;;;;4.00;4.00;;;;;18.81;47.25;100335.36;34480;1269;20069;-68
2024/01/23 01:02:44;;;;;;;;;3.00;3.00;;;;;18.81;47.29;100335.30;34460;1269;21245;-68
2024/01/23 01:03:32;;;;;;;;;5.00;5.00;;;;;18.81;47.51;100338.72;34495;1253;22401;-69
2024/01/23 01:04:19;;;;;;;;;4.00;4.00;;;;;18.80;47.27;100342.63;34483;1268;19952;-68
2024/01/23 01:05:07;;;;;;;;;4.00;4.00;;;;;18.80;47.44;100344.58;34501;1269;18646;-69
2024/01/23 01:05:54;;;;;;;;;4.00;4.00;;;;;18.80;47.14;100345.51;34470;1269;19965;-70
2024/01/23 01:06:42;;;;;;;;;4.00;4.00;;;;;18.79;47.26;100349.58;34485;1269;20034;-70
2024/01/23 01:07:29;;;;;;;;;4.50;4.00;;;;;18.79;47.50;100350.50;34485;1269;18794;-68
2024/01/23 01:08:16;;;;;;;;;6.00;5.00;;;;;18.79;47.30;100349.30;34504;1268;19903;-68
2024/01/23 01:09:05;;;;;;;;;7.00;4.50;;;;;18.78;47.31;100349.52;34488;1253;19983;-68
2024/01/23 01:09:52;;;;;;;;;4.00;4.00;;;;;18.79;47.24;100345.29;34467;1268;20005;-69
2024/01/23 01:10:39;;;;;;;;;4.00;4.00;;;;;18.79;47.12;100346.59;34480;1269;18689;-68
2024/01/23 01:11:27;;;;;;;;;4.50;4.00;;;;;18.79;47.43;100348.65;34484;1268;20191;-69
2024/01/23 01:12:15;;;;;;;;;4.50;4.50;;;;;18.78;47.39;100350.92;34482;1268;18866;-68
2024/01/23 01:13:02;;;;;;;;;7.00;4.00;;;;;18.78;47.27;100350.23;34470;1269;19896;-69
2024/01/23 01:13:49;;;;;;;;;4.00;4.00;;;;;18.78;47.41;100345.83;34484;1268;18629;-69
2024/01/23 01:14:37;;;;;;;;;4.00;4.00;;;;;18.78;47.24;100344.69;34489;1269;20033;-69
2024/01/23 01:15:24;;;;;;;;;7.00;7.00;;;;;18.78;47.18;100347.78;34489;1268;20140;-69
2024/01/23 01:16:12;;;;;;;;;6.33;5.00;;;;;18.78;47.35;100350.87;34502;1269;18651;-69
2024/01/23 01:16:59;;;;;;;;;2.00;2.00;;;;;18.77;47.21;100354.23;34502;1269;18772;-69
2024/01/23 01:17:47;;;;;;;;;4.00;4.00;;;;;18.76;47.17;100359.16;34483;1269;20013;-69
2024/01/23 01:18:36;;;;;;;;;5.00;5.00;;;;;18.77;47.27;100356.40;34490;1269;18670;-68
2024/01/23 01:19:23;;;;;;;;;4.00;4.00;;;;;18.78;47.38;100361.89;34528;1269;21123;-69
2024/01/23 01:20:11;;;;;;;;;4.00;4.00;;;;;18.78;47.33;100358.14;34495;1269;18681;-68
2024/01/23 01:21:00;;;;;;;;;6.00;5.00;;;;;18.76;47.15;100359.92;34514;1269;18557;-68
2024/01/23 01:21:47;;;;;;;;;4.00;4.00;;;;;18.77;47.44;100360.52;34473;1268;19964;-68
2024/01/23 01:22:35;;;;;;;;;4.00;4.00;;;;;18.78;47.28;100361.45;34459;1269;21156;-68
2024/01/23 01:23:22;;;;;;;;;5.00;4.67;;;;;18.79;47.14;100358.73;34488;1269;20584;-68
2024/01/23 01:24:10;;;;;;;;;7.00;7.00;;;;;18.81;46.87;100358.10;34496;1261;18638;-68
2024/01/23 01:24:57;;;;;;;;;4.00;4.00;;;;;18.82;46.79;100357.72;34491;1253;20250;-68
2024/01/23 01:25:45;;;;;;;;;4.00;4.00;;;;;18.83;46.71;100357.52;34470;1269;20678;-68
2024/01/23 01:26:33;;;;;;;;;5.00;5.00;;;;;18.85;46.85;100357.73;34476;1261;19971;-68
2024/01/23 01:27:20;;;;;;;;;4.00;4.00;;;;;18.86;46.82;100360.23;34461;1253;20149;-68
2024/01/23 01:28:07;;;;;;;;;4.00;4.00;;;;;18.88;46.68;100358.83;34470;1269;20003;-68
2024/01/23 01:28:55;;;;;;;;;5.00;5.00;;;;;18.90;46.57;100359.10;34474;1253;19982;-68
2024/01/23 01:29:42;;;;;;;;;4.50;4.50;;;;;18.91;46.70;100361.92;34478;1269;21253;-68
2024/01/23 01:30:30;;;;;;;;;5.00;5.00;;;;;18.91;46.81;100361.88;34485;1269;18748;-68
2024/01/23 01:31:17;;;;;;;;;7.00;5.00;;;;;18.92;46.42;100363.51;34488;1261;20486;-68
2024/01/23 01:32:04;;;;;;;;;8.00;7.00;;;;;18.94;46.50;100366.23;34470;1269;19115;-68
2024/01/23 01:32:52;;;;;;;;;9.00;8.00;;;;;18.95;46.37;100368.89;34502;1269;20064;-68
2024/01/23 01:33:39;;;;;;;;;5.00;4.00;;;;;18.96;46.41;100369.27;34470;1269;18686;-68
2024/01/23 01:34:27;;;;;;;;;4.00;4.00;;;;;18.98;46.29;100369.22;34515;1253;20049;-68
2024/01/23 01:35:14;;;;;;;;;8.00;7.00;;;;;18.98;46.29;100368.68;34488;1269;19822;-68
2024/01/23 01:36:02;;;;;;;;;5.00;5.00;;;;;18.97;46.44;100363.63;34521;1260;20669;-68
2024/01/23 01:36:49;;;;;;;;;6.00;5.00;;;;;18.95;46.59;100362.22;34477;1269;19873;-67
2024/01/23 01:37:36;;;;;;;;;4.50;4.00;;;;;18.95;46.32;100361.83;34478;1269;18652;-67
2024/01/23 01:38:24;;;;;;;;;5.00;5.00;;;;;18.96;46.29;100362.05;34510;1269;19982;-67
2024/01/23 01:39:13;;;;;;;;;5.00;5.00;;;;;18.97;46.50;100362.98;34442;1253;20154;-68
2024/01/23 01:40:00;;;;;;;;;4.33;4.33;;;;;18.97;46.32;100360.98;34455;1253;20069;-68
2024/01/23 01:40:47;;;;;;;;;4.00;4.00;;;;;18.97;46.44;100359.08;34469;1263;20184;-69
2024/01/23 01:41:35;;;;;;;;;6.00;6.00;;;;;18.95;46.37;100358.46;34456;1269;20011;-68
2024/01/23 01:42:22;;;;;;;;;7.00;7.00;;;;;18.94;46.37;100361.56;34509;1253;18594;-68
2024/01/23 01:43:10;;;;;;;;;5.75;4.75;;;;;18.94;46.39;100357.92;34468;1254;21286;-68
2024/01/23 01:43:57;;;;;;;;;6.00;5.00;;;;;18.93;46.25;100358.09;34511;1269;18725;-68
2024/01/23 01:44:44;;;;;;;;;7.00;5.00;;;;;18.94;46.48;100359.81;34482;1269;21075;-69
2024/01/23 01:45:32;;;;;;;;;5.50;5.00;;;;;18.93;46.35;100360.96;34544;1269;18620;-68
2024/01/23 01:46:19;;;;;;;;;6.00;5.00;;;;;18.93;46.22;100358.35;34486;1269;18665;-68
2024/01/23 01:47:07;;;;;;;;;7.00;5.00;;;;;18.92;46.38;100358.58;34456;1269;20084;-68
2024/01/23 01:47:54;;;;;;;;;6.00;6.00;;;;;18.92;46.36;100358.52;34486;1269;19969;-68
2024/01/23 01:48:41;;;;;;;;;6.67;6.00;;;;;18.91;46.29;100353.41;34439;1269;20302;-68
2024/01/23 01:49:29;;;;;;;;;6.50;6.50;;;;;18.91;46.31;100356.02;34480;1269;19978;-68
2024/01/23 01:50:16;;;;;;;;;4.00;4.00;;;;;18.90;46.28;100351.77;34451;1261;20071;-68
2024/01/23 01:51:04;;;;;;;;;6.00;6.00;;;;;18.90;46.36;100353.73;34518;1269;18656;-68
2024/01/23 01:51:51;;;;;;;;;5.00;4.00;;;;;18.90;46.19;100351.56;34459;1269;18631;-68
2024/01/23 01:52:39;;;;;;;;;7.00;7.00;;;;;18.90;46.42;100349.83;34443;1253;19934;-68
2024/01/23 01:53:26;;;;;;;;;7.00;6.00;;;;;18.90;46.44;100346.52;34449;1269;19918;-68
2024/01/23 01:54:13;;;;;;;;;5.00;5.00;;;;;18.89;46.37;100353.52;34430;1269;18667;-69
2024/01/23 01:55:01;;;;;;;;;5.00;4.25;;;;;18.89;46.20;100350.64;34472;1269;20092;-68
2024/01/23 01:55:48;;;;;;;;;7.00;7.00;;;;;18.88;46.40;100352.31;34458;1269;18719;-68
2024/01/23 01:56:36;;;;;;;;;4.00;4.00;;;;;18.87;46.18;100353.34;34507;1253;20005;-68
2024/01/23 01:57:23;;;;;;;;;4.50;4.50;;;;;18.86;46.24;100353.23;34464;1269;20023;-68
2024/01/23 01:58:10;;;;;;;;;4.50;4.00;;;;;18.85;46.43;100354.59;34497;1269;18670;-69
2024/01/23 01:58:58;;;;;;;;;4.50;4.50;;;;;18.85;46.44;100349.92;34476;1269;18708;-69
2024/01/23 01:59:46;;;;;;;;;5.00;5.00;;;;;18.85;46.48;100347.05;34452;1269;18672;-68
2024/01/23 02:00:34;;;;;;;;;5.00;4.00;;;;;18.85;46.46;100348.56;34501;1269;20028;-69
2024/01/23 02:01:21;;;;;;;;;5.00;5.00;;;;;18.84;46.28;100347.36;34465;1269;18693;-69
2024/01/23 02:02:09;;;;;;;;;4.00;4.00;;;;;18.84;46.55;100350.62;34469;1253;18606;-69
2024/01/23 02:02:56;;;;;;;;;4.00;4.00;;;;;18.83;46.30;100355.89;34486;1269;18804;-70
2024/01/23 02:03:44;;;;;;;;;4.00;4.00;;;;;18.83;46.35;100351.98;34422;1261;20381;-69
2024/01/23 02:04:31;;;;;;;;;5.00;5.00;;;;;18.83;46.36;100354.67;34487;1269;18617;-69
2024/01/23 02:05:19;;;;;;;;;4.00;4.00;;;;;18.82;46.62;100355.61;34448;1253;18652;-69
2024/01/23 02:06:06;;;;;;;;;4.00;4.00;;;;;18.81;46.51;100355.77;34479;1253;20086;-69
2024/01/23 02:06:53;;;;;;;;;5.00;5.00;;;;;18.80;46.29;100357.55;34448;1269;19986;-69
2024/01/23 02:07:41;;;;;;;;;4.00;4.00;;;;;18.78;46.57;100357.05;34499;1253;20196;-69
2024/01/23 02:08:28;;;;;;;;;5.00;5.00;;;;;18.79;46.34;100357.93;34449;1269;19877;-70
2024/01/23 02:09:16;;;;;;;;;5.00;5.00;;;;;18.80;46.54;100357.44;34516;1253;20019;-70
2024/01/23 02:10:03;;;;;;;;;4.00;4.00;;;;;18.79;46.54;100359.67;34507;1269;20326;-70
2024/01/23 02:10:51;;;;;;;;;4.00;4.00;;;;;18.78;46.49;100355.86;34496;1269;18790;-70
2024/01/23 02:11:38;;;;;;;;;7.00;5.00;;;;;18.79;46.52;100357.76;34456;1269;20017;-69
2024/01/23 02:12:26;;;;;;;;;5.00;4.00;;;;;18.79;46.59;100358.74;34491;1269;20302;-69
2024/01/23 02:13:13;;;;;;;;;4.00;2.00;;;;;18.79;46.67;100356.58;34453;1269;20002;-69
2024/01/23 02:14:00;;;;;;;;;5.00;5.00;;;;;18.79;46.47;100358.91;34484;1269;20024;-70
2024/01/23 02:14:48;;;;;;;;;4.00;4.00;;;;;18.79;46.61;100360.48;34449;1253;20058;-70
2024/01/23 02:15:35;;;;;;;;;4.00;4.00;;;;;18.79;46.70;100360.31;34486;1253;20085;-69
2024/01/23 02:16:23;;;;;;;;;4.00;4.00;;;;;18.78;46.62;100358.58;34468;1269;19996;-70
2024/01/23 02:17:10;;;;;;;;;5.00;4.00;;;;;18.77;46.51;100359.39;34429;1253;21256;-69
2024/01/23 02:17:57;;;;;;;;;5.00;5.00;;;;;18.77;46.60;100362.05;34463;1269;20002;-70
2024/01/23 02:18:45;;;;;;;;;3.00;3.00;;;;;18.76;46.59;100363.19;34468;1269;20149;-70
2024/01/23 02:19:32;;;;;;;;;6.00;5.00;;;;;18.76;46.63;100361.88;34479;1269;18679;-70
2024/01/23 02:20:20;;;;;;;;;4.00;4.00;;;;;18.77;46.81;100362.91;34472;1262;19991;-70
2024/01/23 02:21:07;;;;;;;;;5.00;5.00;;;;;18.77;46.74;100367.37;34482;1269;20009;-70
2024/01/23 02:21:54;;;;;;;;;4.00;4.00;;;;;18.77;46.79;100366.17;34467;1253;21261;-70
2024/01/23 02:22:42;;;;;;;;;4.00;4.00;;;;;18.76;46.50;100363.19;34480;1269;20030;-69
2024/01/23 02:23:29;;;;;;;;;4.00;4.00;;;;;18.76;46.78;100366.23;34495;1253;21290;-70
2024/01/23 02:24:17;;;;;;;;;4.00;4.00;;;;;18.77;46.57;100363.46;34502;1269;19887;-69
2024/01/23 02:25:04;;;;;;;;;5.00;4.00;;;;;18.76;46.82;100365.20;34484;1253;18663;-69
2024/01/23 02:25:51;;;;;;;;;7.00;5.00;;;;;18.76;46.54;100366.12;34522;1269;18679;-68
2024/01/23 02:26:39;;;;;;;;;4.50;4.50;;;;;18.76;46.67;100365.20;34434;1269;20097;-68
2024/01/23 02:27:26;;;;;;;;;5.00;5.00;;;;;18.76;46.92;100363.67;34479;1253;19944;-68
2024/01/23 02:28:15;;;;;;;;;4.00;4.00;;;;;18.76;46.84;100364.76;34444;1269;18606;-68
2024/01/23 02:29:02;;;;;;;;;5.00;4.00;;;;;18.76;46.78;100367.19;34469;1269;20032;-68
2024/01/23 02:29:50;;;;;;;;;5.00;4.00;;;;;18.76;46.75;100364.70;34456;1269;18675;-68
2024/01/23 02:30:37;;;;;;;;;4.00;4.00;;;;;18.76;46.66;100369.59;34492;1269;18615;-69
2024/01/23 02:31:25;;;;;;;;;4.00;4.00;;;;;18.76;46.65;100363.84;34474;1253;20269;-69
2024/01/23 02:32:12;;;;;;;;;5.00;4.00;;;;;18.74;46.76;100361.88;34502;1269;19851;-67
2024/01/23 02:33:00;;;;;;;;;5.00;4.00;;;;;18.74;46.87;100362.59;34458;1269;18664;-68
2024/01/23 02:33:47;;;;;;;;;4.00;4.00;;;;;18.74;46.80;100358.30;34504;1253;20114;-68
2024/01/23 02:34:34;;;;;;;;;5.00;5.00;;;;;18.74;46.77;100359.05;34484;1253;20239;-68
2024/01/23 02:35:22;;;;;;;;;4.50;4.00;;;;;18.75;46.95;100361.77;34520;1269;18700;-67
2024/01/23 02:36:09;;;;;;;;;4.00;4.00;;;;;18.74;46.67;100362.95;34450;1269;20006;-68
2024/01/23 02:36:57;;;;;;;;;4.00;4.00;;;;;18.74;46.65;100363.17;34528;1269;19950;-68
2024/01/23 02:37:44;;;;;;;;;5.00;5.00;;;;;18.74;46.87;100363.66;34432;1269;19782;-69
2024/01/23 02:38:31;;;;;;;;;4.00;4.00;;;;;18.75;46.80;100366.48;34528;1253;21263;-68
2024/01/23 02:39:19;;;;;;;;;4.00;4.00;;;;;18.74;46.66;100366.54;34425;1253;20098;-69
2024/01/23 02:40:06;;;;;;;;;4.00;4.00;;;;;18.74;46.67;100362.20;34494;1253;20035;-68
2024/01/23 02:40:56;;;;;;;;;7.00;5.00;;;;;18.74;46.57;100362.10;34453;1268;18856;-68
2024/01/23 02:41:43;;;;;;;;;5.00;4.00;;;;;18.75;46.31;100356.02;34488;1269;19981;-69
2024/01/23 02:42:30;;;;;;;;;5.00;4.67;;;;;18.75;46.22;100354.34;34545;1269;20073;-69
2024/01/23 02:43:19;;;;;;;;;5.00;4.00;;;;;18.77;46.32;100354.29;34489;1269;18620;-69
2024/01/23 02:44:06;;;;;;;;;5.00;5.00;;;;;18.79;46.08;100355.77;34512;1269;18641;-69
2024/01/23 02:44:54;;;;;;;;;5.00;5.00;;;;;18.80;46.28;100353.00;34452;1269;18662;-69
2024/01/23 02:45:41;;;;;;;;;5.00;5.00;;;;;18.81;46.04;100353.55;34523;1253;20155;-69
2024/01/23 02:46:29;;;;;;;;;5.00;4.00;;;;;18.82;45.95;100351.59;34478;1269;20024;-69
2024/01/23 02:47:16;;;;;;;;;5.00;5.00;;;;;18.83;45.88;100356.64;34520;1269;20091;-69
2024/01/23 02:48:03;;;;;;;;;5.00;4.00;;;;;18.85;45.73;100351.59;34486;1269;18530;-69
2024/01/23 02:48:51;;;;;;;;;7.00;5.00;;;;;18.85;45.75;100353.34;34535;1269;18795;-70
2024/01/23 02:49:38;;;;;;;;;7.00;7.00;;;;;18.86;45.72;100360.50;34477;1269;20003;-70
2024/01/23 02:50:28;;;;;;;;;5.00;4.00;;;;;18.87;45.87;100359.53;34559;1269;18950;-69
2024/01/23 02:51:16;;;;;;;;;4.00;4.00;;;;;18.88;45.82;100362.73;34532;1269;20106;-69
2024/01/23 02:52:03;;;;;;;;;4.33;4.33;;;;;18.89;45.93;100363.88;34507;1269;19276;-69
2024/01/23 02:52:51;;;;;;;;;4.50;4.50;;;;;18.89;45.73;100365.77;34512;1269;20030;-69
2024/01/23 02:53:38;;;;;;;;;7.00;4.50;;;;;18.90;45.81;100369.41;34489;1253;20024;-70
2024/01/23 02:54:26;;;;;;;;;4.50;4.50;;;;;18.90;45.93;100370.88;34527;1269;18687;-69
2024/01/23 02:55:13;;;;;;;;;4.00;4.00;;;;;18.90;45.83;100373.98;34520;1269;19073;-70
2024/01/23 02:56:01;;;;;;;;;5.67;5.67;;;;;18.90;45.68;100377.07;34540;1269;19941;-69
2024/01/23 02:56:51;;;;;;;;;4.00;4.00;;;;;18.89;45.74;100372.94;34503;1253;20088;-69
2024/01/23 02:57:38;;;;;;;;;4.00;4.00;;;;;18.88;45.85;100375.92;34503;1269;19961;-69
2024/01/23 02:58:25;;;;;;;;;5.00;5.00;;;;;18.88;45.65;100371.80;34554;1253;20372;-69
2024/01/23 02:59:13;;;;;;;;;7.00;4.00;;;;;18.87;45.85;100375.60;34499;1269;18622;-70
2024/01/23 03:00:00;;;;;;;;;4.00;4.00;;;;;18.87;45.86;100374.95;34501;1269;18640;-69
2024/01/23 03:00:48;;;;;;;;;4.00;4.00;;;;;18.86;45.65;100374.52;34508;1253;18642;-69
2024/01/23 03:01:35;;;;;;;;;6.50;5.00;;;;;18.86;45.76;100375.16;34560;1269;19966;-69
2024/01/23 03:02:23;;;;;;;;;4.00;4.00;;;;;18.87;45.79;100377.17;34513;1269;20120;-69
2024/01/23 03:03:10;;;;;;;;;5.00;5.00;;;;;18.85;45.50;100377.42;34462;1269;18681;-69
2024/01/23 03:03:58;;;;;;;;;4.00;4.00;;;;;18.86;45.56;100384.39;34519;1269;20063;-69
2024/01/23 03:04:45;;;;;;;;;4.00;4.00;;;;;18.86;45.68;100385.63;34428;1253;20098;-69
2024/01/23 03:05:33;;;;;;;;;5.00;5.00;;;;;18.86;45.51;100389.11;34503;1269;21085;-69
2024/01/23 03:06:20;;;;;;;;;2.00;2.00;;;;;18.87;45.70;100391.27;34445;1269;18805;-69
2024/01/23 03:07:08;;;;;;;;;4.50;4.00;;;;;18.86;45.61;100392.27;34523;1269;18679;-69
2024/01/23 03:07:55;;;;;;;;;4.00;4.00;;;;;18.87;45.48;100395.40;34435;1269;18637;-69
2024/01/23 03:08:43;;;;;;;;;4.00;4.00;;;;;18.86;45.63;100394.80;34517;1269;19950;-69
2024/01/23 03:09:30;;;;;;;;;4.00;4.00;;;;;18.85;45.59;100395.13;34436;1253;20046;-70
2024/01/23 03:10:17;;;;;;;;;2.00;2.00;;;;;18.85;45.53;100393.77;34547;1260;20056;-70
2024/01/23 03:11:05;;;;;;;;;4.00;2.00;;;;;18.84;45.59;100393.34;34450;1269;19805;-70
2024/01/23 03:11:52;;;;;;;;;5.33;5.00;;;;;18.84;45.54;100394.41;34556;1253;19941;-69
2024/01/23 03:12:40;;;;;;;;;2.00;2.00;;;;;18.84;45.73;100392.89;34451;1253;21113;-69
2024/01/23 03:13:27;;;;;;;;;3.33;3.33;;;;;18.83;45.59;100392.95;34589;1269;18952;-69
2024/01/23 03:14:14;;;;;;;;;5.00;4.00;;;;;18.83;45.89;100395.55;34445;1253;20219;-69
2024/01/23 03:15:02;;;;;;;;;6.00;5.00;;;;;18.82;45.73;100394.09;34551;1268;21322;-69
2024/01/23 03:15:52;;;;;;;;;4.33;4.00;;;;;18.81;45.75;100396.96;34442;1269;19958;-69
2024/01/23 03:16:39;;;;;;;;;4.00;4.00;;;;;18.80;45.78;100396.79;34473;1269;20055;-69
2024/01/23 03:17:26;;;;;;;;;4.00;4.00;;;;;18.78;45.76;100400.90;34566;1269;19996;-69
2024/01/23 03:18:14;;;;;;;;;4.00;4.00;;;;;18.77;46.03;100402.91;34486;1269;20029;-70
2024/01/23 03:19:02;;;;;;;;;4.00;4.00;;;;;18.75;46.13;100400.35;34545;1269;18628;-69
2024/01/23 03:19:50;;;;;;;;;6.00;4.00;;;;;18.74;45.90;100406.70;34428;1269;18550;-69
2024/01/23 03:20:37;;;;;;;;;4.00;4.00;;;;;18.74;46.19;100406.80;34551;1253;20013;-69
2024/01/23 03:21:25;;;;;;;;;4.50;4.00;;;;;18.75;46.17;100409.58;34433;1269;20009;-69
2024/01/23 03:22:13;;;;;;;;;5.00;5.00;;;;;18.75;46.22;100406.70;34549;1253;20169;-69
2024/01/23 03:23:00;;;;;;;;;4.00;4.00;;;;;18.76;45.96;100412.29;34441;1269;18673;-69
2024/01/23 03:23:47;;;;;;;;;4.00;4.00;;;;;18.75;46.10;100414.95;34530;1269;19940;-69
2024/01/23 03:24:35;;;;;;;;;5.00;5.00;;;;;18.75;46.24;100415.48;34444;1269;18687;-69
2024/01/23 03:25:22;;;;;;;;;4.00;4.00;;;;;18.75;45.94;100411.70;34582;1268;18642;-70
2024/01/23 03:26:10;;;;;;;;;5.00;4.00;;;;;18.75;46.28;100420.05;34440;1269;20419;-70
2024/01/23 03:26:57;;;;;;;;;4.00;4.00;;;;;18.75;46.03;100424.60;34555;1268;20002;-70
2024/01/23 03:27:44;;;;;;;;;4.00;4.00;;;;;18.74;46.05;100423.95;34462;1253;18572;-69
2024/01/23 03:28:32;;;;;;;;;4.00;4.00;;;;;18.74;46.32;100422.16;34580;1268;18677;-70
2024/01/23 03:29:19;;;;;;;;;2.00;2.00;;;;;18.75;46.07;100425.20;34448;1269;19991;-69
2024/01/23 03:30:07;;;;;;;;;4.50;4.50;;;;;18.75;46.00;100424.94;34552;1269;18751;-69
2024/01/23 03:30:54;;;;;;;;;2.67;2.67;;;;;18.75;46.12;100425.85;34447;1269;19994;-70
2024/01/23 03:31:42;;;;;;;;;4.00;4.00;;;;;18.74;46.38;100426.98;34497;1269;18802;-70
2024/01/23 03:32:29;;;;;;;;;4.00;4.00;;;;;18.74;46.01;100427.20;34442;1269;19964;-69
2024/01/23 03:33:16;;;;;;;;;4.00;4.00;;;;;18.75;46.12;100430.91;34407;1253;20070;-69
2024/01/23 03:34:04;;;;;;;;;4.00;4.00;;;;;18.75;46.32;100432.16;34473;1269;18635;-70
2024/01/23 03:34:51;;;;;;;;;4.00;2.00;;;;;18.75;46.38;100435.52;34420;1269;18624;-69
2024/01/23 03:35:39;;;;;;;;;2.00;2.00;;;;;18.75;46.23;100432.86;34489;1254;19923;-69
2024/01/23 03:36:26;;;;;;;;;4.00;4.00;;;;;18.75;46.26;100435.25;34437;1253;20009;-70
2024/01/23 03:37:15;;;;;;;;;4.00;4.00;;;;;18.74;46.09;100440.61;34482;1269;21243;-70
2024/01/23 03:38:04;;;;;;;;;4.00;4.00;;;;;18.75;46.15;100442.58;34505;1254;20137;-70
2024/01/23 03:38:52;;;;;;;;;2.00;2.00;;;;;18.74;46.03;100442.77;34497;1269;18602;-69
2024/01/23 03:39:39;;;;;;;;;2.00;2.00;;;;;18.74;46.06;100440.55;34453;1269;18660;-69
2024/01/23 03:40:27;;;;;;;;;4.00;4.00;;;;;18.74;46.09;100441.48;34411;1254;18638;-69
2024/01/23 03:41:14;;;;;;;;;4.00;4.00;;;;;18.74;46.28;100443.76;34468;1269;18706;-69